createdAt,value
2018-09-30T00:04:00.226Z,57.20
2018-09-30T00:09:02.795Z,57.50
2018-09-30T00:14:05.042Z,58.10
2018-09-30T00:19:07.182Z,60.80
2018-09-30T00:24:15.082Z,61.30
2018-09-30T00:29:17.214Z,61.40
2018-09-30T00:34:25.073Z,62.40
2018-09-30T00:39:27.453Z,63.00
2018-09-30T00:44:29.590Z,63.80
2018-09-30T00:49:31.725Z,64.30
2018-09-30T00:54:33.862Z,67.10
2018-09-30T00:59:35.993Z,66.20
2018-09-30T01:04:38.129Z,67.90
2018-09-30T01:09:40.302Z,71.30
2018-09-30T01:14:42.434Z,74.10
2018-09-30T01:19:44.573Z,76.60
2018-09-30T01:24:46.689Z,76.60
2018-09-30T01:29:48.837Z,74.70
2018-09-30T01:34:50.953Z,74.00
2018-09-30T01:39:53.082Z,74.00
2018-09-30T01:44:55.215Z,75.40
2018-09-30T01:49:57.422Z,77.60
2018-09-30T01:54:59.558Z,76.10
2018-09-30T02:00:01.685Z,75.90
2018-09-30T02:05:03.832Z,78.00
2018-09-30T02:10:06.004Z,77.30
2018-09-30T02:15:08.155Z,78.00
2018-09-30T02:20:10.299Z,78.90
2018-09-30T02:25:12.435Z,78.60
2018-09-30T02:30:14.554Z,77.30
2018-09-30T02:35:16.741Z,78.20
2018-09-30T02:40:18.899Z,77.40
2018-09-30T02:45:21.058Z,78.20
2018-09-30T02:50:23.193Z,78.60
2018-09-30T02:55:25.334Z,78.80
2018-09-30T03:00:27.457Z,79.50
2018-09-30T03:05:29.606Z,82.20
2018-09-30T03:10:31.750Z,81.10
2018-09-30T03:15:33.886Z,82.70
2018-09-30T03:20:36.057Z,88.80
2018-09-30T03:25:38.182Z,90.70
2018-09-30T03:30:40.333Z,90.30
2018-09-30T03:35:42.489Z,89.80
2018-09-30T03:40:44.622Z,86.90
2018-09-30T03:45:46.750Z,87.30
2018-09-30T03:50:48.905Z,84.70
2018-09-30T03:55:51.050Z,85.80
2018-09-30T04:00:53.194Z,87.20
2018-09-30T04:05:55.401Z,87.80
2018-09-30T04:10:57.548Z,86.50
2018-09-30T04:15:59.673Z,87.00
2018-09-30T04:21:01.833Z,87.80
2018-09-30T04:26:03.970Z,93.30
2018-09-30T04:31:06.110Z,90.00
2018-09-30T04:36:08.245Z,87.80
2018-09-30T04:41:10.381Z,86.70
2018-09-30T04:46:12.506Z,87.40
2018-09-30T04:51:14.650Z,91.90
2018-09-30T04:56:16.817Z,95.30
2018-09-30T05:01:18.982Z,98.40
2018-09-30T05:06:21.122Z,96.20
2018-09-30T05:11:23.231Z,93.40
2018-09-30T05:16:25.429Z,91.00
2018-09-30T05:21:27.546Z,89.90
2018-09-30T05:26:29.678Z,89.50
2018-09-30T05:31:31.808Z,88.40
2018-09-30T05:36:33.971Z,87.30
2018-09-30T05:41:36.194Z,86.90
2018-09-30T05:46:38.594Z,92.80
2018-09-30T05:51:40.722Z,89.10
2018-09-30T05:56:42.854Z,88.10
2018-09-30T06:01:44.974Z,86.80
2018-09-30T06:06:47.106Z,81.80
2018-09-30T06:11:49.278Z,77.50
2018-09-30T06:16:51.450Z,75.70
2018-09-30T06:21:53.609Z,72.80
2018-09-30T06:26:55.746Z,71.00
2018-09-30T06:31:57.894Z,68.60
2018-09-30T06:37:00.030Z,65.90
2018-09-30T06:42:02.186Z,65.20
2018-09-30T06:47:04.506Z,63.80
2018-09-30T06:52:06.686Z,63.40
2018-09-30T06:57:08.990Z,61.40
2018-09-30T07:02:11.141Z,60.90
2018-09-30T07:07:13.260Z,59.30
2018-09-30T07:12:15.642Z,56.60
2018-09-30T07:17:17.770Z,55.20
2018-09-30T07:22:19.992Z,52.40
2018-09-30T07:27:22.083Z,52.20
2018-09-30T07:32:24.237Z,49.50
2018-09-30T07:37:26.374Z,48.60
2018-09-30T07:42:28.515Z,47.20
2018-09-30T07:47:30.677Z,45.30
2018-09-30T07:52:32.829Z,43.80
2018-09-30T07:57:34.991Z,42.10
2018-09-30T08:02:37.130Z,41.10
2018-09-30T08:07:39.349Z,40.10
2018-09-30T08:12:41.486Z,38.80
2018-09-30T08:17:43.601Z,39.00
2018-09-30T08:22:45.733Z,39.20
2018-09-30T08:27:47.896Z,36.40
2018-09-30T08:32:50.022Z,35.10
2018-09-30T08:37:57.993Z,35.80
2018-09-30T08:43:00.126Z,34.20
2018-09-30T08:48:02.294Z,34.00
2018-09-30T08:53:04.502Z,33.50
2018-09-30T08:58:06.701Z,32.50
2018-09-30T09:03:08.992Z,34.00
2018-09-30T09:08:11.134Z,32.60
2018-09-30T09:13:13.553Z,29.80
2018-09-30T09:18:15.795Z,30.30
2018-09-30T09:23:18.010Z,30.10
2018-09-30T09:28:20.174Z,28.60
2018-09-30T09:33:22.405Z,28.00
2018-09-30T09:38:24.633Z,28.60
2018-09-30T09:43:26.766Z,26.70
2018-09-30T09:48:28.950Z,26.30
2018-09-30T09:53:31.260Z,26.90
2018-09-30T09:58:33.433Z,26.80
2018-09-30T10:03:35.586Z,25.10
2018-09-30T10:08:37.770Z,26.60
2018-09-30T10:13:39.906Z,29.50
2018-09-30T10:18:42.050Z,30.40
2018-09-30T10:23:44.214Z,31.40
2018-09-30T10:28:46.405Z,30.00
2018-09-30T10:33:48.546Z,28.80
2018-09-30T10:38:50.798Z,30.70
2018-09-30T10:43:52.857Z,30.80
2018-09-30T10:48:54.997Z,29.90
2018-09-30T10:53:57.437Z,31.10
2018-09-30T10:58:59.590Z,30.60
2018-09-30T11:04:01.726Z,30.80
2018-09-30T11:09:04.998Z,31.60
2018-09-30T11:14:07.138Z,31.50
2018-09-30T11:19:09.394Z,30.60
2018-09-30T11:24:11.529Z,32.10
2018-09-30T11:29:13.686Z,32.50
2018-09-30T11:34:15.825Z,32.50
2018-09-30T11:39:17.985Z,33.40
2018-09-30T11:44:26.995Z,32.30
2018-09-30T11:49:29.121Z,32.80
2018-09-30T11:54:31.294Z,33.90
2018-09-30T11:59:33.441Z,34.40
2018-09-30T12:04:35.594Z,34.70
2018-09-30T12:09:37.734Z,34.40
2018-09-30T12:14:39.854Z,34.00
2018-09-30T12:19:41.985Z,34.40
2018-09-30T12:24:44.127Z,33.90
2018-09-30T12:29:46.269Z,34.40
2018-09-30T12:34:48.409Z,34.20
2018-09-30T12:39:50.550Z,34.30
2018-09-30T12:44:52.682Z,33.40
2018-09-30T12:49:54.842Z,34.50
2018-09-30T12:54:56.986Z,34.80
2018-09-30T12:59:59.114Z,34.40
2018-09-30T13:05:01.267Z,34.80
2018-09-30T13:10:03.702Z,34.50
2018-09-30T13:15:05.888Z,34.60
2018-09-30T13:20:08.098Z,34.80
2018-09-30T13:25:10.256Z,35.20
2018-09-30T13:30:12.418Z,35.30
2018-09-30T13:35:14.559Z,35.60
2018-09-30T13:40:16.912Z,35.80
2018-09-30T13:45:18.946Z,34.70
2018-09-30T13:50:21.106Z,35.60
2018-09-30T13:55:23.286Z,35.80
2018-09-30T14:00:25.462Z,35.20
2018-09-30T14:05:27.613Z,35.30
2018-09-30T14:10:29.766Z,36.10
2018-09-30T14:15:31.931Z,36.00
2018-09-30T14:20:34.105Z,35.80
2018-09-30T14:25:36.263Z,36.00
2018-09-30T14:30:38.442Z,36.60
2018-09-30T14:35:40.761Z,35.80
2018-09-30T14:40:42.910Z,36.60
2018-09-30T14:45:45.086Z,35.50
2018-09-30T14:50:47.257Z,35.00
2018-09-30T14:55:49.433Z,35.30
2018-09-30T15:00:51.570Z,35.30
2018-09-30T15:05:53.763Z,35.40
2018-09-30T15:10:55.877Z,35.50
2018-09-30T15:15:58.038Z,35.50
2018-09-30T15:21:00.227Z,35.20
2018-09-30T15:26:02.380Z,35.70
2018-09-30T15:31:04.566Z,35.70
2018-09-30T15:36:06.728Z,34.60
2018-09-30T15:41:09.001Z,34.70
2018-09-30T15:46:11.158Z,35.00
2018-09-30T15:51:13.289Z,35.90
2018-09-30T15:56:15.425Z,35.50
2018-09-30T16:01:17.575Z,35.60
2018-09-30T16:06:19.882Z,36.10
2018-09-30T16:11:22.014Z,36.40
2018-09-30T16:16:24.158Z,36.80
2018-09-30T16:21:26.345Z,35.80
2018-09-30T16:26:28.494Z,36.60
2018-09-30T16:31:30.640Z,36.40
2018-09-30T16:36:32.885Z,36.40
2018-09-30T16:41:35.072Z,37.30
2018-09-30T16:46:37.358Z,37.50
2018-09-30T16:51:39.531Z,37.60
2018-09-30T16:56:41.714Z,39.10
2018-09-30T17:01:43.814Z,39.60
2018-09-30T17:06:46.017Z,40.30
2018-09-30T17:11:48.141Z,41.50
2018-09-30T17:16:50.282Z,42.40
2018-09-30T17:21:52.411Z,43.50
2018-09-30T17:26:54.577Z,44.40
2018-09-30T17:31:56.739Z,45.70
2018-09-30T17:36:59.112Z,46.70
2018-09-30T17:42:01.268Z,46.90
2018-09-30T17:47:03.422Z,47.40
2018-09-30T17:52:05.706Z,48.10
2018-09-30T17:57:07.838Z,49.10
2018-09-30T18:02:10.055Z,48.50
2018-09-30T18:07:12.209Z,49.30
2018-09-30T18:12:14.361Z,49.70
2018-09-30T18:17:16.514Z,50.20
2018-09-30T18:22:18.661Z,50.80
2018-09-30T18:27:20.852Z,50.90
2018-09-30T18:32:22.993Z,50.50
2018-09-30T18:37:25.230Z,50.60
2018-09-30T18:42:27.388Z,51.00
2018-09-30T18:47:29.569Z,51.40
2018-09-30T18:52:33.712Z,52.00
2018-09-30T18:57:35.907Z,51.90
2018-09-30T19:02:38.053Z,51.90
2018-09-30T19:07:40.202Z,51.80
2018-09-30T19:12:42.475Z,51.50
2018-09-30T19:17:44.622Z,51.50
2018-09-30T19:22:47.078Z,51.20
2018-09-30T19:27:49.253Z,51.20
2018-09-30T19:32:51.413Z,51.30
2018-09-30T19:37:53.545Z,51.20
2018-09-30T19:42:55.698Z,51.40
2018-09-30T19:47:57.881Z,51.70
2018-09-30T19:53:00.046Z,51.10
2018-09-30T19:58:02.222Z,51.10
2018-09-30T20:03:04.354Z,51.30
2018-09-30T20:08:06.530Z,51.40
2018-09-30T20:13:08.798Z,52.20
2018-09-30T20:18:10.941Z,52.00
2018-09-30T20:23:13.070Z,51.70
2018-09-30T20:28:15.214Z,53.20
2018-09-30T20:33:17.349Z,55.40
2018-09-30T20:38:19.501Z,56.30
2018-09-30T20:43:21.643Z,57.60
2018-09-30T20:48:23.794Z,57.30
2018-09-30T20:53:25.930Z,57.70
2018-09-30T20:58:28.084Z,56.90
2018-09-30T21:03:30.225Z,56.40
2018-09-30T21:08:32.365Z,56.30
2018-09-30T21:13:34.606Z,56.30
2018-09-30T21:18:36.765Z,56.20
2018-09-30T21:23:38.905Z,55.60
2018-09-30T21:28:41.058Z,55.20
2018-09-30T21:33:43.209Z,52.30
2018-09-30T21:38:45.335Z,51.30
2018-09-30T21:43:47.482Z,50.70
2018-09-30T21:48:50.565Z,50.30
2018-09-30T21:53:52.652Z,50.00
2018-09-30T21:58:54.997Z,48.80
2018-09-30T22:03:57.126Z,49.20
2018-09-30T22:08:59.265Z,48.80
2018-09-30T22:14:01.416Z,48.20
2018-09-30T22:19:03.603Z,48.00
2018-09-30T22:24:05.738Z,47.90
2018-09-30T22:29:07.889Z,48.90
2018-09-30T22:34:10.030Z,48.10
2018-09-30T22:39:12.170Z,49.00
2018-09-30T22:44:14.305Z,49.40
2018-09-30T22:49:16.449Z,50.80
2018-09-30T22:54:18.610Z,51.20
2018-09-30T22:59:20.746Z,51.70
2018-09-30T23:04:22.917Z,53.20
2018-09-30T23:09:25.026Z,53.80
2018-09-30T23:14:27.146Z,53.40
2018-09-30T23:19:29.281Z,53.30
2018-09-30T23:24:31.421Z,53.40
2018-09-30T23:29:33.569Z,54.30
2018-09-30T23:34:35.706Z,54.50
2018-09-30T23:39:37.854Z,54.50
2018-09-30T23:44:39.982Z,54.80
2018-09-30T23:49:42.127Z,54.20
2018-09-30T23:54:44.258Z,54.70
2018-09-30T23:59:46.522Z,55.30
